createdAt,value
2018-06-03T00:01:19.065Z,13.13
2018-06-03T00:03:47.594Z,7.50
2018-06-03T00:06:16.196Z,8.30
2018-06-03T00:08:44.728Z,10.57
2018-06-03T00:11:13.412Z,9.90
2018-06-03T00:13:41.643Z,6.77
2018-06-03T00:16:10.191Z,14.20
2018-06-03T00:18:38.471Z,27.07
2018-06-03T00:21:18.343Z,27.20
2018-06-03T00:23:46.858Z,19.63
2018-06-03T00:26:15.387Z,18.87
2018-06-03T00:28:43.913Z,9.50
2018-06-03T00:31:12.511Z,6.60
2018-06-03T00:33:41.039Z,12.07
2018-06-03T00:36:20.728Z,9.20
2018-06-03T00:38:49.271Z,22.77
2018-06-03T00:41:17.790Z,31.33
2018-06-03T00:43:46.348Z,36.53
2018-06-03T00:46:14.930Z,24.90
2018-06-03T00:48:43.493Z,36.03
2018-06-03T00:51:12.024Z,37.30
2018-06-03T00:53:40.602Z,18.27
2018-06-03T00:56:10.665Z,36.33
2018-06-03T00:58:39.307Z,46.80
2018-06-03T01:01:07.851Z,44.77
2018-06-03T01:03:36.560Z,33.60
2018-06-03T01:06:05.079Z,38.53
2018-06-03T01:08:33.636Z,51.40
2018-06-03T01:11:02.245Z,49.97
2018-06-03T01:13:30.803Z,20.43
2018-06-03T01:15:59.390Z,8.70
2018-06-03T01:18:27.938Z,21.73
2018-06-03T01:20:56.473Z,13.50
2018-06-03T01:23:25.047Z,11.50
2018-06-03T01:25:53.557Z,9.93
2018-06-03T01:28:22.092Z,7.93
2018-06-03T01:30:50.627Z,12.63
2018-06-03T01:33:19.191Z,53.00
2018-06-03T01:35:47.745Z,23.43
2018-06-03T01:38:16.319Z,12.60
2018-06-03T01:40:44.873Z,15.00
2018-06-03T01:43:13.422Z,10.43
2018-06-03T01:45:41.934Z,22.10
2018-06-03T01:48:10.524Z,27.93
2018-06-03T01:50:39.057Z,21.10
2018-06-03T01:53:07.600Z,15.33
2018-06-03T01:55:36.113Z,11.47
2018-06-03T01:58:04.726Z,12.20
2018-06-03T02:00:33.230Z,15.70
2018-06-03T02:03:01.767Z,20.80
2018-06-03T02:05:30.387Z,50.27
2018-06-03T02:07:58.932Z,47.60
2018-06-03T02:10:27.476Z,14.77
2018-06-03T02:12:56.012Z,9.20
2018-06-03T02:15:24.606Z,8.63
2018-06-03T02:17:53.138Z,10.80
2018-06-03T02:20:21.381Z,4.90
2018-06-03T02:22:49.919Z,3.90
2018-06-03T02:25:18.461Z,12.23
2018-06-03T02:27:46.972Z,20.33
2018-06-03T02:30:15.543Z,10.70
2018-06-03T02:32:44.105Z,7.90
2018-06-03T02:35:12.648Z,8.00
2018-06-03T02:37:41.171Z,7.00
2018-06-03T02:40:09.735Z,5.80
2018-06-03T02:42:38.320Z,6.87
2018-06-03T02:45:06.965Z,7.63
2018-06-03T02:47:35.512Z,8.10
2018-06-03T02:50:04.198Z,4.43
2018-06-03T02:52:32.709Z,4.40
2018-06-03T02:55:01.261Z,4.87
2018-06-03T02:57:29.784Z,7.60
2018-06-03T02:59:58.354Z,4.43
2018-06-03T03:02:26.866Z,8.37
2018-06-03T03:04:55.411Z,5.47
2018-06-03T03:07:23.931Z,5.60
2018-06-03T03:09:52.522Z,7.80
2018-06-03T03:12:21.046Z,5.47
2018-06-03T03:14:49.597Z,5.30
2018-06-03T03:17:18.312Z,4.30
2018-06-03T03:19:47.043Z,4.17
2018-06-03T03:22:15.571Z,6.63
2018-06-03T03:24:44.103Z,5.37
2018-06-03T03:27:12.618Z,6.60
2018-06-03T03:29:41.158Z,7.80
2018-06-03T03:32:09.680Z,7.70
2018-06-03T03:34:38.209Z,10.30
2018-06-03T03:37:06.727Z,8.17
2018-06-03T03:39:35.269Z,8.10
2018-06-03T03:42:03.798Z,6.80
2018-06-03T03:44:32.333Z,8.70
2018-06-03T03:47:00.857Z,5.47
2018-06-03T03:49:29.411Z,6.53
2018-06-03T03:51:57.938Z,3.73
2018-06-03T03:54:26.534Z,5.73
2018-06-03T03:56:55.069Z,26.33
2018-06-03T03:59:23.595Z,8.43
2018-06-03T04:01:52.132Z,5.53
2018-06-03T04:04:20.359Z,6.37
2018-06-03T04:06:48.906Z,6.30
2018-06-03T04:09:17.412Z,4.27
2018-06-03T04:11:45.969Z,5.30
2018-06-03T04:14:14.496Z,5.00
2018-06-03T04:16:43.044Z,4.27
2018-06-03T04:19:11.253Z,3.87
2018-06-03T04:21:39.803Z,5.83
2018-06-03T04:24:08.334Z,37.00
2018-06-03T04:26:36.966Z,54.60
2018-06-03T04:29:05.507Z,29.03
2018-06-03T04:31:34.118Z,31.87
2018-06-03T04:34:02.635Z,16.93
2018-06-03T04:36:31.183Z,5.43
2018-06-03T04:38:59.703Z,5.33
2018-06-03T04:41:28.270Z,10.83
2018-06-03T04:43:56.792Z,9.40
2018-06-03T04:46:25.371Z,4.50
2018-06-03T04:48:53.900Z,8.83
2018-06-03T04:51:22.110Z,6.57
2018-06-03T04:53:50.638Z,11.67
2018-06-03T04:56:20.632Z,5.93
2018-06-03T04:58:49.220Z,7.80
2018-06-03T05:01:17.767Z,9.53
2018-06-03T05:03:46.299Z,21.50
2018-06-03T05:06:14.843Z,35.17
2018-06-03T05:08:43.474Z,7.60
2018-06-03T05:11:12.032Z,4.70
2018-06-03T05:13:40.563Z,10.93
2018-06-03T05:16:09.115Z,9.20
2018-06-03T05:18:37.695Z,8.87
2018-06-03T05:21:06.568Z,20.13
2018-06-03T05:23:35.095Z,6.00
2018-06-03T05:26:03.689Z,4.70
2018-06-03T05:28:32.218Z,4.20
2018-06-03T05:31:00.756Z,4.60
2018-06-03T05:33:29.279Z,4.70
2018-06-03T05:35:57.831Z,8.60
2018-06-03T05:38:26.356Z,4.33
2018-06-03T05:40:54.935Z,3.30
2018-06-03T05:43:23.445Z,4.60
2018-06-03T05:45:52.046Z,5.60
2018-06-03T05:48:20.603Z,7.03
2018-06-03T05:50:49.190Z,3.90
2018-06-03T05:53:17.743Z,5.93
2018-06-03T05:55:46.277Z,6.60
2018-06-03T05:58:14.816Z,4.70
2018-06-03T06:00:43.347Z,9.50
2018-06-03T06:03:11.869Z,4.10
2018-06-03T06:05:40.388Z,5.63
2018-06-03T06:08:08.939Z,4.10
2018-06-03T06:10:37.451Z,4.83
2018-06-03T06:13:06.121Z,5.40
2018-06-03T06:15:34.641Z,4.53
2018-06-03T06:18:03.178Z,3.83
2018-06-03T06:20:31.697Z,4.13
2018-06-03T06:23:00.225Z,4.03
2018-06-03T06:25:28.779Z,3.67
2018-06-03T06:27:57.297Z,5.37
2018-06-03T06:30:25.804Z,3.83
2018-06-03T06:32:54.343Z,3.83
2018-06-03T06:35:22.857Z,4.70
2018-06-03T06:37:51.403Z,5.03
2018-06-03T06:40:19.930Z,5.13
2018-06-03T06:42:48.466Z,7.40
2018-06-03T06:45:17.000Z,4.70
2018-06-03T06:47:45.622Z,5.03
2018-06-03T06:50:14.145Z,10.40
2018-06-03T06:52:42.690Z,4.73
2018-06-03T06:55:11.216Z,4.60
2018-06-03T06:57:39.758Z,8.50
2018-06-03T07:00:08.322Z,5.00
2018-06-03T07:02:36.986Z,4.00
2018-06-03T07:05:05.554Z,10.40
2018-06-03T07:07:34.175Z,15.57
2018-06-03T07:10:02.710Z,4.10
2018-06-03T07:12:31.255Z,6.87
2018-06-03T07:14:59.772Z,4.33
2018-06-03T07:17:28.022Z,6.73
2018-06-03T07:19:56.533Z,3.80
2018-06-03T07:22:24.764Z,5.47
2018-06-03T07:24:53.275Z,6.17
2018-06-03T07:27:21.839Z,4.93
2018-06-03T07:29:50.345Z,4.13
2018-06-03T07:32:18.854Z,4.53
2018-06-03T07:34:47.400Z,4.60
2018-06-03T07:37:15.933Z,5.73
2018-06-03T07:39:44.492Z,5.37
2018-06-03T07:42:13.013Z,4.70
2018-06-03T07:44:41.702Z,6.90
2018-06-03T07:47:10.283Z,5.23
2018-06-03T07:49:38.831Z,4.37
2018-06-03T07:52:07.356Z,4.83
2018-06-03T07:54:36.003Z,4.20
2018-06-03T07:57:04.524Z,6.23
2018-06-03T07:59:33.059Z,3.80
2018-06-03T08:02:01.820Z,5.40
2018-06-03T08:04:30.359Z,8.50
2018-06-03T08:06:58.875Z,7.63
2018-06-03T08:09:27.452Z,7.20
2018-06-03T08:11:55.998Z,5.10
2018-06-03T08:14:24.710Z,5.73
2018-06-03T08:16:53.289Z,4.33
2018-06-03T08:19:21.942Z,6.03
2018-06-03T08:21:50.476Z,5.67
2018-06-03T08:24:19.042Z,5.40
2018-06-03T08:26:47.580Z,10.90
2018-06-03T08:29:16.424Z,6.80
2018-06-03T08:31:44.950Z,4.90
2018-06-03T08:34:13.514Z,5.30
2018-06-03T08:36:42.139Z,5.70
2018-06-03T08:39:10.747Z,4.73
2018-06-03T08:41:39.313Z,7.33
2018-06-03T08:44:07.864Z,9.83
2018-06-03T08:46:36.383Z,5.77
2018-06-03T08:49:04.975Z,5.47
2018-06-03T08:51:33.550Z,3.60
2018-06-03T08:54:02.805Z,4.90
2018-06-03T08:56:31.354Z,5.23
2018-06-03T08:58:59.991Z,5.60
2018-06-03T09:01:28.620Z,4.50
2018-06-03T09:03:57.309Z,5.63
2018-06-03T09:06:25.852Z,5.63
2018-06-03T09:08:54.296Z,6.13
2018-06-03T09:11:22.888Z,6.80
2018-06-03T09:13:51.430Z,9.50
2018-06-03T09:16:20.228Z,3.40
2018-06-03T09:18:48.936Z,3.70
2018-06-03T09:21:17.492Z,6.43
2018-06-03T09:23:46.282Z,4.73
2018-06-03T09:26:14.896Z,6.60
2018-06-03T09:28:43.447Z,4.57
2018-06-03T09:31:12.001Z,7.97
2018-06-03T09:33:40.529Z,5.00
2018-06-03T09:36:09.075Z,6.27
2018-06-03T09:38:37.607Z,4.40
2018-06-03T09:41:06.187Z,4.20
2018-06-03T09:43:34.719Z,4.93
2018-06-03T09:46:03.162Z,3.73
2018-06-03T09:48:31.823Z,3.13
2018-06-03T09:51:00.714Z,4.60
2018-06-03T09:53:29.268Z,5.13
2018-06-03T09:55:57.606Z,3.30
2018-06-03T09:58:26.239Z,2.60
2018-06-03T10:00:54.812Z,2.80
2018-06-03T10:03:23.351Z,3.20
2018-06-03T10:05:52.975Z,7.37
2018-06-03T10:08:21.512Z,4.63
2018-06-03T10:10:50.068Z,4.80
2018-06-03T10:13:19.619Z,3.47
2018-06-03T10:15:48.890Z,3.97
2018-06-03T10:18:17.452Z,14.57
2018-06-03T10:20:46.054Z,3.53
2018-06-03T10:23:14.582Z,5.37
2018-06-03T10:25:43.127Z,3.50
2018-06-03T10:28:11.650Z,6.90
2018-06-03T10:30:40.244Z,5.10
2018-06-03T10:33:08.786Z,3.43
2018-06-03T10:35:37.442Z,7.43
2018-06-03T10:38:06.068Z,6.10
2018-06-03T10:40:34.638Z,3.77
2018-06-03T10:43:03.176Z,65.77
2018-06-03T10:45:31.744Z,4.73
2018-06-03T10:48:00.277Z,4.13
2018-06-03T10:50:28.848Z,2.43
2018-06-03T10:52:57.374Z,3.77
2018-06-03T10:55:25.908Z,4.37
2018-06-03T10:57:54.443Z,3.50
2018-06-03T11:00:22.984Z,3.90
2018-06-03T11:02:51.604Z,3.50
2018-06-03T11:05:20.134Z,3.87
2018-06-03T11:07:48.812Z,4.40
2018-06-03T11:10:17.309Z,4.20
2018-06-03T11:12:45.856Z,3.27
2018-06-03T11:15:14.385Z,3.03
2018-06-03T11:17:43.004Z,4.40
2018-06-03T11:20:11.528Z,3.90
2018-06-03T11:22:40.084Z,4.73
2018-06-03T11:25:08.615Z,2.83
2018-06-03T11:27:37.161Z,4.17
2018-06-03T11:30:05.745Z,3.10
2018-06-03T11:32:34.303Z,3.07
2018-06-03T11:35:02.839Z,3.63
2018-06-03T11:37:31.421Z,5.10
2018-06-03T11:40:00.051Z,2.83
2018-06-03T11:42:28.590Z,4.90
2018-06-03T11:44:57.128Z,3.83
2018-06-03T11:47:25.789Z,7.07
2018-06-03T11:49:54.330Z,6.00
2018-06-03T11:52:22.892Z,3.83
2018-06-03T11:54:51.415Z,3.70
2018-06-03T11:57:20.306Z,4.50
2018-06-03T11:59:48.840Z,4.00
2018-06-03T12:02:18.510Z,3.30
2018-06-03T12:04:47.038Z,3.93
2018-06-03T12:07:15.603Z,5.23
2018-06-03T12:09:44.132Z,4.13
2018-06-03T12:12:12.647Z,2.53
2018-06-03T12:14:41.191Z,4.83
2018-06-03T12:17:09.715Z,2.30
2018-06-03T12:19:37.957Z,5.73
2018-06-03T12:22:06.490Z,5.30
2018-06-03T12:24:35.031Z,3.87
2018-06-03T12:27:03.553Z,3.40
2018-06-03T12:29:32.100Z,5.53
2018-06-03T12:32:00.640Z,3.17
2018-06-03T12:34:29.190Z,3.80
2018-06-03T12:36:57.807Z,2.80
2018-06-03T12:39:26.366Z,7.43
2018-06-03T12:41:54.908Z,3.70
2018-06-03T12:44:23.462Z,7.10
2018-06-03T12:46:51.999Z,4.10
2018-06-03T12:49:20.542Z,6.90
2018-06-03T12:51:49.067Z,3.07
2018-06-03T12:54:17.607Z,3.23
2018-06-03T12:56:46.162Z,2.50
2018-06-03T12:59:14.731Z,5.03
2018-06-03T13:01:43.344Z,4.63
2018-06-03T13:04:11.910Z,4.80
2018-06-03T13:06:40.446Z,2.57
2018-06-03T13:09:09.026Z,2.67
2018-06-03T13:11:37.585Z,2.70
2018-06-03T13:14:06.137Z,6.70
2018-06-03T13:16:34.741Z,2.23
2018-06-03T13:19:03.331Z,6.10
2018-06-03T13:21:31.910Z,5.50
2018-06-03T13:24:00.603Z,3.10
2018-06-03T13:26:29.147Z,2.23
2018-06-03T13:28:57.708Z,3.23
2018-06-03T13:31:26.258Z,2.63
2018-06-03T13:33:54.986Z,3.60
2018-06-03T13:36:23.510Z,1.90
2018-06-03T13:38:52.050Z,2.57
2018-06-03T13:41:20.577Z,3.60
2018-06-03T13:43:49.130Z,4.50
2018-06-03T13:46:17.798Z,3.10
2018-06-03T13:48:46.364Z,2.63
2018-06-03T13:51:14.880Z,4.30
2018-06-03T13:53:43.416Z,2.13
2018-06-03T13:56:11.986Z,3.60
2018-06-03T13:58:40.522Z,2.43
2018-06-03T14:01:09.075Z,5.47
2018-06-03T14:03:37.651Z,3.17
2018-06-03T14:06:06.209Z,3.33
2018-06-03T14:08:34.743Z,12.97
2018-06-03T14:11:03.284Z,2.50
2018-06-03T14:13:31.814Z,2.60
2018-06-03T14:16:00.374Z,2.60
2018-06-03T14:18:28.907Z,7.73
2018-06-03T14:20:58.354Z,2.60
2018-06-03T14:23:26.882Z,4.03
2018-06-03T14:25:55.448Z,8.00
2018-06-03T14:28:23.984Z,7.80
2018-06-03T14:30:52.545Z,2.50
2018-06-03T14:33:20.869Z,3.17
2018-06-03T14:35:49.552Z,3.50
2018-06-03T14:38:18.081Z,4.00
2018-06-03T14:40:46.664Z,2.87
2018-06-03T14:43:15.181Z,5.80
2018-06-03T14:45:44.086Z,4.33
2018-06-03T14:48:12.638Z,5.20
2018-06-03T14:50:41.255Z,2.63
2018-06-03T14:53:09.830Z,2.90
2018-06-03T14:55:38.402Z,4.20
2018-06-03T14:58:06.938Z,3.83
2018-06-03T15:00:35.437Z,3.97
2018-06-03T15:03:04.230Z,10.80
2018-06-03T15:05:33.625Z,8.80
2018-06-03T15:08:02.184Z,5.83
2018-06-03T15:10:30.803Z,7.50
2018-06-03T15:12:59.424Z,3.63
2018-06-03T15:15:27.978Z,2.77
2018-06-03T15:17:56.549Z,6.73
2018-06-03T15:20:25.157Z,5.87
2018-06-03T15:22:53.725Z,3.20
2018-06-03T15:25:22.356Z,4.97
2018-06-03T15:27:50.948Z,2.70
2018-06-03T15:30:19.495Z,4.00
2018-06-03T15:32:48.357Z,3.20
2018-06-03T15:35:17.085Z,7.00
2018-06-03T15:37:45.695Z,6.53
2018-06-03T15:40:14.318Z,7.90
2018-06-03T15:42:42.865Z,5.10
2018-06-03T15:45:11.473Z,4.00
2018-06-03T15:47:40.019Z,3.20
2018-06-03T15:50:08.626Z,2.30
2018-06-03T15:52:37.199Z,3.27
2018-06-03T15:55:05.730Z,2.97
2018-06-03T15:57:34.276Z,5.10
2018-06-03T16:00:02.807Z,7.40
2018-06-03T16:02:31.358Z,2.60
2018-06-03T16:05:00.665Z,5.70
2018-06-03T16:07:29.202Z,3.13
2018-06-03T16:09:57.731Z,3.30
2018-06-03T16:12:26.954Z,2.77
2018-06-03T16:14:55.481Z,5.83
2018-06-03T16:17:24.020Z,5.97
2018-06-03T16:19:52.578Z,3.33
2018-06-03T16:22:21.295Z,3.07
2018-06-03T16:24:49.798Z,3.90
2018-06-03T16:27:18.364Z,3.13
2018-06-03T16:29:46.938Z,2.47
2018-06-03T16:32:15.487Z,3.07
2018-06-03T16:34:44.016Z,4.53
2018-06-03T16:37:12.756Z,3.47
2018-06-03T16:39:41.302Z,3.40
2018-06-03T16:42:09.871Z,2.80
2018-06-03T16:44:38.427Z,2.50
2018-06-03T16:47:07.086Z,4.60
2018-06-03T16:49:35.607Z,4.13
2018-06-03T16:52:04.174Z,7.37
2018-06-03T16:54:32.720Z,2.20
2018-06-03T16:57:01.280Z,3.47
2018-06-03T16:59:29.822Z,5.37
2018-06-03T17:01:58.365Z,8.83
2018-06-03T17:04:26.970Z,4.80
2018-06-03T17:06:55.544Z,2.20
2018-06-03T17:09:24.252Z,2.23
2018-06-03T17:11:52.784Z,4.40
2018-06-03T17:14:21.331Z,5.37
2018-06-03T17:16:49.874Z,6.00
2018-06-03T17:19:18.418Z,3.17
2018-06-03T17:21:47.082Z,2.40
2018-06-03T17:24:15.599Z,6.10
2018-06-03T17:26:44.332Z,5.90
2018-06-03T17:29:12.854Z,2.03
2018-06-03T17:31:41.402Z,2.37
2018-06-03T17:34:09.951Z,4.33
2018-06-03T17:36:38.480Z,3.60
2018-06-03T17:39:08.573Z,3.30
2018-06-03T17:41:37.127Z,3.77
2018-06-03T17:44:05.675Z,5.33
2018-06-03T17:46:35.098Z,3.17
2018-06-03T17:49:03.759Z,2.10
2018-06-03T17:51:32.414Z,2.80
2018-06-03T17:54:00.961Z,2.73
2018-06-03T17:56:29.501Z,4.03
2018-06-03T17:58:58.203Z,6.10
2018-06-03T18:01:26.767Z,3.17
2018-06-03T18:03:55.334Z,6.53
2018-06-03T18:06:23.849Z,4.03
2018-06-03T18:08:52.784Z,4.73
2018-06-03T18:11:20.973Z,9.97
2018-06-03T18:13:49.521Z,3.10
2018-06-03T18:16:18.067Z,6.50
2018-06-03T18:18:46.602Z,6.70
2018-06-03T18:21:14.806Z,3.13
2018-06-03T18:23:43.355Z,4.53
2018-06-03T18:26:11.546Z,5.00
2018-06-03T18:28:40.096Z,2.50
2018-06-03T18:31:08.645Z,4.37
2018-06-03T18:33:37.188Z,3.50
2018-06-03T18:36:05.815Z,4.43
2018-06-03T18:38:34.427Z,2.47
2018-06-03T18:41:02.994Z,3.77
2018-06-03T18:43:31.523Z,3.53
2018-06-03T18:46:00.391Z,2.50
2018-06-03T18:48:28.952Z,3.23
2018-06-03T18:50:57.495Z,4.43
2018-06-03T18:53:26.054Z,4.27
2018-06-03T18:55:54.715Z,3.00
2018-06-03T18:58:23.287Z,4.10
2018-06-03T19:00:51.949Z,5.20
2018-06-03T19:03:20.508Z,2.90
2018-06-03T19:05:49.050Z,4.60
2018-06-03T19:08:17.635Z,3.03
2018-06-03T19:10:46.236Z,2.97
2018-06-03T19:13:14.779Z,4.47
2018-06-03T19:15:43.326Z,2.40
2018-06-03T19:18:11.909Z,4.60
2018-06-03T19:20:40.414Z,2.10
2018-06-03T19:23:09.020Z,3.57
2018-06-03T19:25:37.574Z,5.83
2018-06-03T19:28:06.112Z,2.73
2018-06-03T19:30:34.671Z,5.43
2018-06-03T19:33:03.205Z,2.93
2018-06-03T19:35:31.668Z,2.40
2018-06-03T19:38:00.198Z,3.87
2018-06-03T19:40:28.743Z,8.23
2018-06-03T19:42:57.280Z,3.40
2018-06-03T19:45:25.827Z,3.50
2018-06-03T19:47:54.372Z,3.20
2018-06-03T19:50:22.951Z,5.23
2018-06-03T19:52:51.470Z,4.47
2018-06-03T19:55:20.048Z,2.90
2018-06-03T19:57:48.283Z,13.33
2018-06-03T20:00:17.729Z,5.17
2018-06-03T20:02:46.267Z,4.27
2018-06-03T20:05:14.970Z,3.53
2018-06-03T20:07:43.480Z,5.17
2018-06-03T20:10:12.046Z,4.40
2018-06-03T20:12:40.562Z,3.07
2018-06-03T20:15:09.446Z,4.10
2018-06-03T20:17:37.724Z,4.00
2018-06-03T20:20:07.053Z,6.17
2018-06-03T20:22:35.570Z,6.23
2018-06-03T20:25:04.122Z,2.70
2018-06-03T20:27:32.660Z,6.20
2018-06-03T20:30:02.062Z,4.33
2018-06-03T20:32:30.583Z,2.97
2018-06-03T20:34:59.129Z,3.00
2018-06-03T20:37:27.764Z,4.80
2018-06-03T20:39:56.312Z,3.60
2018-06-03T20:42:24.822Z,3.57
2018-06-03T20:44:53.366Z,4.53
2018-06-03T20:47:21.910Z,7.60
2018-06-03T20:49:50.461Z,5.00
2018-06-03T20:52:18.984Z,5.17
2018-06-03T20:54:47.534Z,4.37
2018-06-03T20:57:16.057Z,3.53
2018-06-03T20:59:44.614Z,4.20
2018-06-03T21:02:13.174Z,5.30
2018-06-03T21:04:41.814Z,4.87
2018-06-03T21:07:10.355Z,4.77
2018-06-03T21:09:38.904Z,3.10
2018-06-03T21:12:07.432Z,5.73
2018-06-03T21:14:35.989Z,9.10
2018-06-03T21:17:04.634Z,10.83
2018-06-03T21:19:33.151Z,6.27
2018-06-03T21:22:01.703Z,5.93
2018-06-03T21:24:30.236Z,6.70
2018-06-03T21:26:58.779Z,5.50
2018-06-03T21:29:27.311Z,9.57
2018-06-03T21:31:55.872Z,5.00
2018-06-03T21:34:24.400Z,8.17
2018-06-03T21:36:53.002Z,25.23
2018-06-03T21:39:21.547Z,15.83
2018-06-03T21:41:50.240Z,18.57
2018-06-03T21:44:19.004Z,15.10
2018-06-03T21:46:47.612Z,12.30
2018-06-03T21:49:16.145Z,14.90
2018-06-03T21:51:44.873Z,17.03
2018-06-03T21:54:13.402Z,17.03
2018-06-03T21:56:42.071Z,12.27
2018-06-03T21:59:10.601Z,10.97
2018-06-03T22:01:39.182Z,6.77
2018-06-03T22:04:07.700Z,12.10
2018-06-03T22:06:36.258Z,18.97
2018-06-03T22:09:07.447Z,15.03
2018-06-03T22:11:35.994Z,16.10
2018-06-03T22:14:04.582Z,11.77
2018-06-03T22:16:33.149Z,9.37
2018-06-03T22:19:01.680Z,12.13
2018-06-03T22:21:30.228Z,15.57
2018-06-03T22:23:58.765Z,10.33
2018-06-03T22:26:27.450Z,13.40
2018-06-03T22:28:55.989Z,12.10
2018-06-03T22:31:24.537Z,13.40
2018-06-03T22:33:53.074Z,6.40
2018-06-03T22:36:21.634Z,6.10
2018-06-03T22:38:49.956Z,5.23
2018-06-03T22:41:18.509Z,6.00
2018-06-03T22:43:47.069Z,7.93
2018-06-03T22:46:15.595Z,8.70
2018-06-03T22:48:44.134Z,12.70
2018-06-03T22:51:12.704Z,12.00
2018-06-03T22:53:41.522Z,11.67
2018-06-03T22:56:10.056Z,9.40
2018-06-03T22:58:38.593Z,12.17
2018-06-03T23:01:07.146Z,11.30
2018-06-03T23:03:35.699Z,14.47
2018-06-03T23:06:04.252Z,13.67
2018-06-03T23:08:32.787Z,10.43
2018-06-03T23:11:01.313Z,11.67
2018-06-03T23:13:29.534Z,7.67
2018-06-03T23:15:58.051Z,9.40
2018-06-03T23:18:26.590Z,8.87
2018-06-03T23:20:55.343Z,9.07
2018-06-03T23:23:23.891Z,38.23
2018-06-03T23:25:53.004Z,8.30
2018-06-03T23:28:21.542Z,4.90
2018-06-03T23:30:50.075Z,12.10
2018-06-03T23:33:18.613Z,9.50
2018-06-03T23:35:47.157Z,9.10
2018-06-03T23:38:15.700Z,6.40
2018-06-03T23:40:44.219Z,6.37
2018-06-03T23:43:12.749Z,9.20
2018-06-03T23:45:41.300Z,14.00
2018-06-03T23:48:10.056Z,6.93
2018-06-03T23:50:38.620Z,13.57
2018-06-03T23:53:07.154Z,7.60
2018-06-03T23:55:35.684Z,8.50
2018-06-03T23:58:04.245Z,7.00
